sensor_id;sensor_type;location;lat;lon;timestamp;temperature;humidity
71672;DHT22;62112;45.638;11.714;2022-10-10T00:00:03;24.90;60.40
71672;DHT22;62112;45.638;11.714;2022-10-10T00:02:29;24.90;60.50
71672;DHT22;62112;45.638;11.714;2022-10-10T00:04:55;25.00;60.20
71672;DHT22;62112;45.638;11.714;2022-10-10T00:07:20;25.00;60.60
71672;DHT22;62112;45.638;11.714;2022-10-10T00:09:46;24.90;60.70
71672;DHT22;62112;45.638;11.714;2022-10-10T00:12:13;24.90;61.10
71672;DHT22;62112;45.638;11.714;2022-10-10T00:14:38;24.80;60.90
71672;DHT22;62112;45.638;11.714;2022-10-10T00:17:04;24.90;60.80
71672;DHT22;62112;45.638;11.714;2022-10-10T00:19:30;24.90;60.80
71672;DHT22;62112;45.638;11.714;2022-10-10T00:21:56;24.80;61.30
71672;DHT22;62112;45.638;11.714;2022-10-10T00:24:22;24.80;61.20
71672;DHT22;62112;45.638;11.714;2022-10-10T00:26:48;24.70;61.20
71672;DHT22;62112;45.638;11.714;2022-10-10T00:29:14;24.80;61.20
71672;DHT22;62112;45.638;11.714;2022-10-10T00:31:39;24.80;61.30
71672;DHT22;62112;45.638;11.714;2022-10-10T00:34:05;24.80;61.80
71672;DHT22;62112;45.638;11.714;2022-10-10T00:36:31;24.80;61.40
71672;DHT22;62112;45.638;11.714;2022-10-10T00:38:57;24.70;61.60
71672;DHT22;62112;45.638;11.714;2022-10-10T00:41:23;24.80;61.80
71672;DHT22;62112;45.638;11.714;2022-10-10T00:44:09;24.70;61.70
71672;DHT22;62112;45.638;11.714;2022-10-10T00:46:36;24.70;62.00
71672;DHT22;62112;45.638;11.714;2022-10-10T00:49:06;24.70;61.70
71672;DHT22;62112;45.638;11.714;2022-10-10T00:51:33;24.70;62.10
71672;DHT22;62112;45.638;11.714;2022-10-10T00:54:02;24.70;62.10
71672;DHT22;62112;45.638;11.714;2022-10-10T00:56:32;24.60;62.20
71672;DHT22;62112;45.638;11.714;2022-10-10T00:59:03;24.70;62.10
71672;DHT22;62112;45.638;11.714;2022-10-10T01:01:30;24.60;62.10
71672;DHT22;62112;45.638;11.714;2022-10-10T01:03:58;24.70;62.00
71672;DHT22;62112;45.638;11.714;2022-10-10T01:06:24;24.60;62.00
71672;DHT22;62112;45.638;11.714;2022-10-10T01:08:50;24.60;62.50
71672;DHT22;62112;45.638;11.714;2022-10-10T01:17:02;24.60;62.40
71672;DHT22;62112;45.638;11.714;2022-10-10T01:27:45;24.50;63.00
71672;DHT22;62112;45.638;11.714;2022-10-10T01:30:18;24.50;62.80
71672;DHT22;62112;45.638;11.714;2022-10-10T01:33:07;24.50;63.20
71672;DHT22;62112;45.638;11.714;2022-10-10T01:35:58;24.50;63.00
71672;DHT22;62112;45.638;11.714;2022-10-10T01:38:43;24.50;63.10
71672;DHT22;62112;45.638;11.714;2022-10-10T01:41:26;24.50;63.10
71672;DHT22;62112;45.638;11.714;2022-10-10T01:43:57;24.50;62.80
71672;DHT22;62112;45.638;11.714;2022-10-10T01:46:24;24.40;63.00
71672;DHT22;62112;45.638;11.714;2022-10-10T01:48:54;24.50;62.90
71672;DHT22;62112;45.638;11.714;2022-10-10T02:04:57;24.40;63.40
71672;DHT22;62112;45.638;11.714;2022-10-10T02:07:56;24.40;63.00
71672;DHT22;62112;45.638;11.714;2022-10-10T02:10:28;24.40;63.70
71672;DHT22;62112;45.638;11.714;2022-10-10T02:12:56;24.40;63.50
71672;DHT22;62112;45.638;11.714;2022-10-10T02:15:25;24.40;63.10
71672;DHT22;62112;45.638;11.714;2022-10-10T02:17:54;24.50;63.30
71672;DHT22;62112;45.638;11.714;2022-10-10T02:20:24;24.40;63.30
71672;DHT22;62112;45.638;11.714;2022-10-10T02:22:51;24.40;63.80
71672;DHT22;62112;45.638;11.714;2022-10-10T02:25:24;24.40;63.70
71672;DHT22;62112;45.638;11.714;2022-10-10T02:30:29;24.40;63.70
71672;DHT22;62112;45.638;11.714;2022-10-10T02:33:00;24.40;63.20
71672;DHT22;62112;45.638;11.714;2022-10-10T02:35:34;24.40;63.50
71672;DHT22;62112;45.638;11.714;2022-10-10T02:38:03;24.30;63.60
71672;DHT22;62112;45.638;11.714;2022-10-10T02:40:32;24.40;63.70
71672;DHT22;62112;45.638;11.714;2022-10-10T02:43:01;24.40;63.40
71672;DHT22;62112;45.638;11.714;2022-10-10T02:45:29;24.30;63.50
71672;DHT22;62112;45.638;11.714;2022-10-10T02:47:55;24.30;63.80
71672;DHT22;62112;45.638;11.714;2022-10-10T02:50:21;24.30;63.60
71672;DHT22;62112;45.638;11.714;2022-10-10T02:52:47;24.30;63.50
71672;DHT22;62112;45.638;11.714;2022-10-10T02:55:13;24.30;63.90
71672;DHT22;62112;45.638;11.714;2022-10-10T02:57:39;24.30;63.80
71672;DHT22;62112;45.638;11.714;2022-10-10T03:00:06;24.40;63.60
71672;DHT22;62112;45.638;11.714;2022-10-10T03:02:32;24.30;64.10
71672;DHT22;62112;45.638;11.714;2022-10-10T03:04:58;24.40;64.10
71672;DHT22;62112;45.638;11.714;2022-10-10T03:07:24;24.30;64.20
71672;DHT22;62112;45.638;11.714;2022-10-10T03:09:51;24.30;64.00
71672;DHT22;62112;45.638;11.714;2022-10-10T03:12:17;24.30;63.60
71672;DHT22;62112;45.638;11.714;2022-10-10T03:14:43;24.30;64.10
71672;DHT22;62112;45.638;11.714;2022-10-10T03:17:09;24.30;63.50
71672;DHT22;62112;45.638;11.714;2022-10-10T03:19:35;24.20;63.70
71672;DHT22;62112;45.638;11.714;2022-10-10T03:22:01;24.20;63.80
71672;DHT22;62112;45.638;11.714;2022-10-10T03:24:27;24.30;63.60
71672;DHT22;62112;45.638;11.714;2022-10-10T03:26:53;24.30;63.70
71672;DHT22;62112;45.638;11.714;2022-10-10T03:29:18;24.30;63.50
71672;DHT22;62112;45.638;11.714;2022-10-10T03:31:44;24.20;63.80
71672;DHT22;62112;45.638;11.714;2022-10-10T03:34:10;24.20;63.60
71672;DHT22;62112;45.638;11.714;2022-10-10T03:36:36;24.30;64.00
71672;DHT22;62112;45.638;11.714;2022-10-10T03:39:03;24.20;63.60
71672;DHT22;62112;45.638;11.714;2022-10-10T03:41:29;24.20;63.60
71672;DHT22;62112;45.638;11.714;2022-10-10T03:43:54;24.20;63.70
71672;DHT22;62112;45.638;11.714;2022-10-10T03:46:20;24.30;63.50
71672;DHT22;62112;45.638;11.714;2022-10-10T03:48:46;24.20;63.40
71672;DHT22;62112;45.638;11.714;2022-10-10T03:51:12;24.20;63.40
71672;DHT22;62112;45.638;11.714;2022-10-10T03:53:38;24.20;63.20
71672;DHT22;62112;45.638;11.714;2022-10-10T03:56:04;24.30;63.20
71672;DHT22;62112;45.638;11.714;2022-10-10T03:58:30;24.20;62.70
71672;DHT22;62112;45.638;11.714;2022-10-10T04:00:58;24.20;62.70
71672;DHT22;62112;45.638;11.714;2022-10-10T04:03:24;24.20;62.70
71672;DHT22;62112;45.638;11.714;2022-10-10T04:05:51;24.20;62.70
71672;DHT22;62112;45.638;11.714;2022-10-10T04:08:17;24.10;62.80
71672;DHT22;62112;45.638;11.714;2022-10-10T04:10:46;24.10;62.50
71672;DHT22;62112;45.638;11.714;2022-10-10T04:13:12;24.10;62.10
71672;DHT22;62112;45.638;11.714;2022-10-10T04:15:37;24.10;62.20
71672;DHT22;62112;45.638;11.714;2022-10-10T04:18:04;24.10;62.40
71672;DHT22;62112;45.638;11.714;2022-10-10T04:20:29;24.20;62.70
71672;DHT22;62112;45.638;11.714;2022-10-10T04:22:56;24.20;62.80
71672;DHT22;62112;45.638;11.714;2022-10-10T04:25:22;24.20;62.70
71672;DHT22;62112;45.638;11.714;2022-10-10T04:27:48;24.20;62.70
71672;DHT22;62112;45.638;11.714;2022-10-10T04:30:13;24.10;63.10
71672;DHT22;62112;45.638;11.714;2022-10-10T04:32:39;24.10;62.80
71672;DHT22;62112;45.638;11.714;2022-10-10T04:35:05;24.20;63.30
71672;DHT22;62112;45.638;11.714;2022-10-10T04:37:33;24.10;63.30
71672;DHT22;62112;45.638;11.714;2022-10-10T04:39:59;24.10;62.80
71672;DHT22;62112;45.638;11.714;2022-10-10T04:42:24;24.10;63.20
71672;DHT22;62112;45.638;11.714;2022-10-10T04:44:50;24.00;63.50
71672;DHT22;62112;45.638;11.714;2022-10-10T04:47:16;24.10;63.70
71672;DHT22;62112;45.638;11.714;2022-10-10T04:49:42;24.00;63.90
71672;DHT22;62112;45.638;11.714;2022-10-10T04:52:11;24.10;64.20
71672;DHT22;62112;45.638;11.714;2022-10-10T04:54:37;24.10;64.80
71672;DHT22;62112;45.638;11.714;2022-10-10T04:57:04;24.10;64.50
71672;DHT22;62112;45.638;11.714;2022-10-10T04:59:30;24.10;64.80
71672;DHT22;62112;45.638;11.714;2022-10-10T05:01:56;24.10;64.70
71672;DHT22;62112;45.638;11.714;2022-10-10T05:04:21;24.10;64.80
71672;DHT22;62112;45.638;11.714;2022-10-10T05:06:47;24.10;65.20
71672;DHT22;62112;45.638;11.714;2022-10-10T05:09:13;24.10;65.30
71672;DHT22;62112;45.638;11.714;2022-10-10T05:11:39;24.10;65.50
71672;DHT22;62112;45.638;11.714;2022-10-10T05:14:04;24.10;65.30
71672;DHT22;62112;45.638;11.714;2022-10-10T05:16:30;24.10;65.50
71672;DHT22;62112;45.638;11.714;2022-10-10T05:18:56;24.10;65.90
71672;DHT22;62112;45.638;11.714;2022-10-10T05:21:23;24.10;65.70
71672;DHT22;62112;45.638;11.714;2022-10-10T05:23:48;24.10;66.10
71672;DHT22;62112;45.638;11.714;2022-10-10T05:26:14;24.10;65.90
71672;DHT22;62112;45.638;11.714;2022-10-10T05:28:40;24.10;65.70
71672;DHT22;62112;45.638;11.714;2022-10-10T05:31:06;24.10;65.60
71672;DHT22;62112;45.638;11.714;2022-10-10T05:33:33;24.00;65.40
71672;DHT22;62112;45.638;11.714;2022-10-10T05:36:11;24.10;65.60
71672;DHT22;62112;45.638;11.714;2022-10-10T05:38:38;24.10;65.90
71672;DHT22;62112;45.638;11.714;2022-10-10T05:41:05;24.00;65.60
71672;DHT22;62112;45.638;11.714;2022-10-10T05:43:31;24.10;65.70
71672;DHT22;62112;45.638;11.714;2022-10-10T05:45:57;24.00;65.50
71672;DHT22;62112;45.638;11.714;2022-10-10T05:48:23;24.10;65.60
71672;DHT22;62112;45.638;11.714;2022-10-10T05:50:51;24.10;65.50
71672;DHT22;62112;45.638;11.714;2022-10-10T05:53:17;24.00;65.20
71672;DHT22;62112;45.638;11.714;2022-10-10T05:55:43;24.10;65.60
71672;DHT22;62112;45.638;11.714;2022-10-10T05:58:10;24.10;65.20
71672;DHT22;62112;45.638;11.714;2022-10-10T06:00:42;24.00;65.10
71672;DHT22;62112;45.638;11.714;2022-10-10T06:03:09;24.00;64.80
71672;DHT22;62112;45.638;11.714;2022-10-10T06:05:39;24.10;65.10
71672;DHT22;62112;45.638;11.714;2022-10-10T06:08:05;24.10;65.00
71672;DHT22;62112;45.638;11.714;2022-10-10T06:10:40;24.10;65.10
71672;DHT22;62112;45.638;11.714;2022-10-10T06:13:06;24.10;65.00
71672;DHT22;62112;45.638;11.714;2022-10-10T06:15:32;24.10;64.60
71672;DHT22;62112;45.638;11.714;2022-10-10T06:17:58;24.00;64.90
71672;DHT22;62112;45.638;11.714;2022-10-10T06:20:24;24.00;64.50
71672;DHT22;62112;45.638;11.714;2022-10-10T06:22:49;24.00;64.80
71672;DHT22;62112;45.638;11.714;2022-10-10T06:25:15;24.00;65.10
71672;DHT22;62112;45.638;11.714;2022-10-10T06:27:41;24.00;65.00
71672;DHT22;62112;45.638;11.714;2022-10-10T06:30:07;24.00;65.10
71672;DHT22;62112;45.638;11.714;2022-10-10T06:32:33;24.00;64.90
71672;DHT22;62112;45.638;11.714;2022-10-10T06:34:59;24.00;64.80
71672;DHT22;62112;45.638;11.714;2022-10-10T06:37:25;24.00;65.40
71672;DHT22;62112;45.638;11.714;2022-10-10T06:39:51;24.10;65.20
71672;DHT22;62112;45.638;11.714;2022-10-10T06:42:16;24.10;65.40
71672;DHT22;62112;45.638;11.714;2022-10-10T06:44:43;24.00;65.70
71672;DHT22;62112;45.638;11.714;2022-10-10T06:47:09;24.00;65.30
71672;DHT22;62112;45.638;11.714;2022-10-10T06:49:37;24.10;65.90
71672;DHT22;62112;45.638;11.714;2022-10-10T06:52:03;24.10;66.10
71672;DHT22;62112;45.638;11.714;2022-10-10T06:54:30;24.10;65.50
71672;DHT22;62112;45.638;11.714;2022-10-10T06:56:56;24.10;65.90
71672;DHT22;62112;45.638;11.714;2022-10-10T06:59:22;24.10;65.90
71672;DHT22;62112;45.638;11.714;2022-10-10T07:01:48;24.10;66.10
71672;DHT22;62112;45.638;11.714;2022-10-10T07:04:14;24.10;66.00
71672;DHT22;62112;45.638;11.714;2022-10-10T07:06:39;24.10;66.00
71672;DHT22;62112;45.638;11.714;2022-10-10T07:09:05;24.10;65.80
71672;DHT22;62112;45.638;11.714;2022-10-10T07:11:31;24.20;66.10
71672;DHT22;62112;45.638;11.714;2022-10-10T07:13:57;24.10;66.50
71672;DHT22;62112;45.638;11.714;2022-10-10T07:16:23;24.10;65.90
71672;DHT22;62112;45.638;11.714;2022-10-10T07:18:49;24.10;66.30
71672;DHT22;62112;45.638;11.714;2022-10-10T07:21:15;24.10;66.20
71672;DHT22;62112;45.638;11.714;2022-10-10T07:23:43;24.10;65.70
71672;DHT22;62112;45.638;11.714;2022-10-10T07:26:13;24.10;66.10
71672;DHT22;62112;45.638;11.714;2022-10-10T07:28:41;24.10;66.10
71672;DHT22;62112;45.638;11.714;2022-10-10T07:31:09;24.10;65.70
71672;DHT22;62112;45.638;11.714;2022-10-10T07:33:44;24.10;65.90
71672;DHT22;62112;45.638;11.714;2022-10-10T07:36:10;24.10;65.60
71672;DHT22;62112;45.638;11.714;2022-10-10T07:38:36;24.10;65.70
71672;DHT22;62112;45.638;11.714;2022-10-10T07:41:07;24.10;66.30
71672;DHT22;62112;45.638;11.714;2022-10-10T07:43:34;24.10;66.10
71672;DHT22;62112;45.638;11.714;2022-10-10T07:46:00;24.10;65.60
71672;DHT22;62112;45.638;11.714;2022-10-10T07:48:26;24.10;65.60
71672;DHT22;62112;45.638;11.714;2022-10-10T07:50:52;24.10;65.80
71672;DHT22;62112;45.638;11.714;2022-10-10T07:53:18;24.20;65.60
71672;DHT22;62112;45.638;11.714;2022-10-10T07:55:44;24.10;65.60
71672;DHT22;62112;45.638;11.714;2022-10-10T07:58:10;24.20;65.60
71672;DHT22;62112;45.638;11.714;2022-10-10T08:00:37;24.10;65.50
71672;DHT22;62112;45.638;11.714;2022-10-10T08:03:09;24.10;65.50
71672;DHT22;62112;45.638;11.714;2022-10-10T08:05:40;24.10;65.60
71672;DHT22;62112;45.638;11.714;2022-10-10T08:08:08;24.20;65.50
71672;DHT22;62112;45.638;11.714;2022-10-10T08:10:34;24.10;65.70
71672;DHT22;62112;45.638;11.714;2022-10-10T08:13:01;24.20;65.60
71672;DHT22;62112;45.638;11.714;2022-10-10T08:15:32;24.20;65.60
71672;DHT22;62112;45.638;11.714;2022-10-10T08:18:09;24.20;65.90
71672;DHT22;62112;45.638;11.714;2022-10-10T08:20:41;24.20;65.60
71672;DHT22;62112;45.638;11.714;2022-10-10T08:23:09;24.20;65.30
71672;DHT22;62112;45.638;11.714;2022-10-10T08:25:36;24.20;65.00
71672;DHT22;62112;45.638;11.714;2022-10-10T08:28:03;24.20;64.90
71672;DHT22;62112;45.638;11.714;2022-10-10T08:30:34;24.20;64.60
71672;DHT22;62112;45.638;11.714;2022-10-10T08:33:04;24.20;64.30
71672;DHT22;62112;45.638;11.714;2022-10-10T08:35:38;24.20;64.30
71672;DHT22;62112;45.638;11.714;2022-10-10T08:38:06;24.20;64.30
71672;DHT22;62112;45.638;11.714;2022-10-10T08:40:34;24.20;64.20
71672;DHT22;62112;45.638;11.714;2022-10-10T08:43:06;24.20;63.70
71672;DHT22;62112;45.638;11.714;2022-10-10T08:45:34;24.30;63.70
71672;DHT22;62112;45.638;11.714;2022-10-10T08:48:06;24.20;63.70
71672;DHT22;62112;45.638;11.714;2022-10-10T08:50:36;24.30;63.50
71672;DHT22;62112;45.638;11.714;2022-10-10T08:53:17;24.30;63.40
71672;DHT22;62112;45.638;11.714;2022-10-10T08:55:45;24.40;63.20
71672;DHT22;62112;45.638;11.714;2022-10-10T08:58:20;24.20;62.80
71672;DHT22;62112;45.638;11.714;2022-10-10T09:00:59;24.30;62.70
71672;DHT22;62112;45.638;11.714;2022-10-10T09:03:45;24.30;62.90
71672;DHT22;62112;45.638;11.714;2022-10-10T09:12:21;24.30;62.40
71672;DHT22;62112;45.638;11.714;2022-10-10T09:17:48;24.40;62.60
71672;DHT22;62112;45.638;11.714;2022-10-10T09:25:33;24.40;62.90
71672;DHT22;62112;45.638;11.714;2022-10-10T09:30:34;24.40;62.70
71672;DHT22;62112;45.638;11.714;2022-10-10T09:33:20;24.40;62.80
71672;DHT22;62112;45.638;11.714;2022-10-10T09:35:48;24.50;63.80
71672;DHT22;62112;45.638;11.714;2022-10-10T09:38:54;24.40;64.00
71672;DHT22;62112;45.638;11.714;2022-10-10T09:41:40;24.40;64.40
71672;DHT22;62112;45.638;11.714;2022-10-10T09:44:13;24.50;64.70
71672;DHT22;62112;45.638;11.714;2022-10-10T09:46:39;24.50;64.40
71672;DHT22;62112;45.638;11.714;2022-10-10T09:49:05;24.50;64.70
71672;DHT22;62112;45.638;11.714;2022-10-10T09:51:31;24.40;64.80
71672;DHT22;62112;45.638;11.714;2022-10-10T09:53:58;24.50;64.90
71672;DHT22;62112;45.638;11.714;2022-10-10T09:56:37;24.50;65.30
71672;DHT22;62112;45.638;11.714;2022-10-10T09:59:03;24.40;65.60
71672;DHT22;62112;45.638;11.714;2022-10-10T10:01:30;24.40;65.40
71672;DHT22;62112;45.638;11.714;2022-10-10T10:04:15;24.50;65.50
71672;DHT22;62112;45.638;11.714;2022-10-10T10:06:49;24.40;66.20
71672;DHT22;62112;45.638;11.714;2022-10-10T10:09:17;24.50;66.10
71672;DHT22;62112;45.638;11.714;2022-10-10T10:11:45;24.50;66.20
71672;DHT22;62112;45.638;11.714;2022-10-10T10:14:38;24.50;66.10
71672;DHT22;62112;45.638;11.714;2022-10-10T10:17:07;24.60;67.40
71672;DHT22;62112;45.638;11.714;2022-10-10T10:19:38;24.50;66.80
71672;DHT22;62112;45.638;11.714;2022-10-10T10:22:04;24.40;66.60
71672;DHT22;62112;45.638;11.714;2022-10-10T10:24:46;24.40;66.70
71672;DHT22;62112;45.638;11.714;2022-10-10T10:27:20;24.50;66.50
71672;DHT22;62112;45.638;11.714;2022-10-10T10:29:52;24.40;66.50
71672;DHT22;62112;45.638;11.714;2022-10-10T10:32:44;24.40;66.90
71672;DHT22;62112;45.638;11.714;2022-10-10T10:35:29;24.50;67.30
71672;DHT22;62112;45.638;11.714;2022-10-10T10:40:33;24.50;66.60
71672;DHT22;62112;45.638;11.714;2022-10-10T10:46:01;24.50;66.70
71672;DHT22;62112;45.638;11.714;2022-10-10T10:56:46;24.50;65.90
71672;DHT22;62112;45.638;11.714;2022-10-10T11:06:51;24.40;64.30
71672;DHT22;62112;45.638;11.714;2022-10-10T11:09:35;24.40;64.30
71672;DHT22;62112;45.638;11.714;2022-10-10T11:15:15;24.50;64.50
71672;DHT22;62112;45.638;11.714;2022-10-10T11:17:46;24.50;64.40
71672;DHT22;62112;45.638;11.714;2022-10-10T11:23:03;24.60;63.60
71672;DHT22;62112;45.638;11.714;2022-10-10T11:25:35;24.60;63.60
71672;DHT22;62112;45.638;11.714;2022-10-10T11:28:37;24.60;63.70
71672;DHT22;62112;45.638;11.714;2022-10-10T11:31:30;24.50;63.30
71672;DHT22;62112;45.638;11.714;2022-10-10T11:34:37;24.60;62.50
71672;DHT22;62112;45.638;11.714;2022-10-10T11:36:56;24.60;62.70
71672;DHT22;62112;45.638;11.714;2022-10-10T11:39:50;24.70;62.30
71672;DHT22;62112;45.638;11.714;2022-10-10T11:42:26;24.60;62.30
71672;DHT22;62112;45.638;11.714;2022-10-10T11:45:15;24.60;62.00
71672;DHT22;62112;45.638;11.714;2022-10-10T11:47:46;24.60;61.70
71672;DHT22;62112;45.638;11.714;2022-10-10T11:50:27;24.70;61.40
71672;DHT22;62112;45.638;11.714;2022-10-10T11:53:04;24.70;61.60
71672;DHT22;62112;45.638;11.714;2022-10-10T12:00:47;24.70;61.20
71672;DHT22;62112;45.638;11.714;2022-10-10T12:03:13;24.70;61.10
71672;DHT22;62112;45.638;11.714;2022-10-10T12:05:45;24.70;61.50
71672;DHT22;62112;45.638;11.714;2022-10-10T12:08:23;24.80;60.90
71672;DHT22;62112;45.638;11.714;2022-10-10T12:10:54;24.80;60.60
71672;DHT22;62112;45.638;11.714;2022-10-10T12:15:53;24.90;60.70
71672;DHT22;62112;45.638;11.714;2022-10-10T12:18:27;24.80;60.40
71672;DHT22;62112;45.638;11.714;2022-10-10T12:21:06;24.90;60.40
71672;DHT22;62112;45.638;11.714;2022-10-10T12:23:32;24.90;60.20
71672;DHT22;62112;45.638;11.714;2022-10-10T12:25:59;24.90;60.40
71672;DHT22;62112;45.638;11.714;2022-10-10T12:28:29;24.90;60.10
71672;DHT22;62112;45.638;11.714;2022-10-10T12:41:55;24.90;59.20
71672;DHT22;62112;45.638;11.714;2022-10-10T12:44:23;24.90;59.00
71672;DHT22;62112;45.638;11.714;2022-10-10T12:49:54;24.90;59.20
71672;DHT22;62112;45.638;11.714;2022-10-10T12:52:31;25.00;59.20
71672;DHT22;62112;45.638;11.714;2022-10-10T12:55:08;25.00;58.60
71672;DHT22;62112;45.638;11.714;2022-10-10T12:57:42;25.00;58.90
71672;DHT22;62112;45.638;11.714;2022-10-10T13:02:42;25.00;58.30
71672;DHT22;62112;45.638;11.714;2022-10-10T13:05:11;25.00;58.40
71672;DHT22;62112;45.638;11.714;2022-10-10T13:07:43;24.90;58.00
71672;DHT22;62112;45.638;11.714;2022-10-10T13:10:29;25.00;57.90
71672;DHT22;62112;45.638;11.714;2022-10-10T13:13:17;24.90;57.10
71672;DHT22;62112;45.638;11.714;2022-10-10T13:15:54;25.00;57.90
71672;DHT22;62112;45.638;11.714;2022-10-10T13:18:38;25.00;57.40
71672;DHT22;62112;45.638;11.714;2022-10-10T13:21:09;25.00;57.00
71672;DHT22;62112;45.638;11.714;2022-10-10T13:23:40;24.90;57.10
71672;DHT22;62112;45.638;11.714;2022-10-10T13:28:46;25.00;56.90
71672;DHT22;62112;45.638;11.714;2022-10-10T13:31:13;24.90;57.20
71672;DHT22;62112;45.638;11.714;2022-10-10T13:33:40;25.00;57.50
71672;DHT22;62112;45.638;11.714;2022-10-10T13:36:14;25.00;56.90
71672;DHT22;62112;45.638;11.714;2022-10-10T13:38:44;25.00;57.30
71672;DHT22;62112;45.638;11.714;2022-10-10T13:41:17;24.90;57.10
71672;DHT22;62112;45.638;11.714;2022-10-10T13:43:44;25.00;56.70
71672;DHT22;62112;45.638;11.714;2022-10-10T13:48:54;25.00;57.00
71672;DHT22;62112;45.638;11.714;2022-10-10T13:51:42;25.00;57.40
71672;DHT22;62112;45.638;11.714;2022-10-10T13:54:42;25.00;57.20
71672;DHT22;62112;45.638;11.714;2022-10-10T13:57:23;25.00;57.30
71672;DHT22;62112;45.638;11.714;2022-10-10T14:00:05;25.00;57.40
71672;DHT22;62112;45.638;11.714;2022-10-10T14:02:34;25.00;57.30
71672;DHT22;62112;45.638;11.714;2022-10-10T14:05:06;24.90;57.40
71672;DHT22;62112;45.638;11.714;2022-10-10T14:07:32;25.00;57.20
71672;DHT22;62112;45.638;11.714;2022-10-10T14:10:04;24.90;57.30
71672;DHT22;62112;45.638;11.714;2022-10-10T14:12:39;24.90;57.10
71672;DHT22;62112;45.638;11.714;2022-10-10T14:17:55;24.90;57.10
71672;DHT22;62112;45.638;11.714;2022-10-10T14:20:21;24.90;57.20
71672;DHT22;62112;45.638;11.714;2022-10-10T14:22:47;24.90;57.00
71672;DHT22;62112;45.638;11.714;2022-10-10T14:25:13;24.90;56.60
71672;DHT22;62112;45.638;11.714;2022-10-10T14:27:39;24.90;57.20
71672;DHT22;62112;45.638;11.714;2022-10-10T14:30:05;25.00;56.90
71672;DHT22;62112;45.638;11.714;2022-10-10T14:32:31;24.90;56.70
71672;DHT22;62112;45.638;11.714;2022-10-10T14:34:57;24.90;56.70
71672;DHT22;62112;45.638;11.714;2022-10-10T14:37:27;24.80;56.50
71672;DHT22;62112;45.638;11.714;2022-10-10T14:39:54;24.90;56.50
71672;DHT22;62112;45.638;11.714;2022-10-10T14:42:21;24.90;56.70
71672;DHT22;62112;45.638;11.714;2022-10-10T14:44:47;24.80;56.30
71672;DHT22;62112;45.638;11.714;2022-10-10T14:49:40;24.80;56.30
71672;DHT22;62112;45.638;11.714;2022-10-10T14:52:07;24.80;56.40
71672;DHT22;62112;45.638;11.714;2022-10-10T14:54:33;24.80;56.10
71672;DHT22;62112;45.638;11.714;2022-10-10T14:56:59;24.90;56.20
71672;DHT22;62112;45.638;11.714;2022-10-10T14:59:25;24.90;56.40
71672;DHT22;62112;45.638;11.714;2022-10-10T15:01:54;24.80;56.20
71672;DHT22;62112;45.638;11.714;2022-10-10T15:04:26;24.80;56.60
71672;DHT22;62112;45.638;11.714;2022-10-10T15:06:57;24.80;56.30
71672;DHT22;62112;45.638;11.714;2022-10-10T15:09:26;24.80;56.30
71672;DHT22;62112;45.638;11.714;2022-10-10T15:11:52;24.80;56.20
71672;DHT22;62112;45.638;11.714;2022-10-10T15:14:18;24.80;56.40
71672;DHT22;62112;45.638;11.714;2022-10-10T15:16:44;24.80;56.80
71672;DHT22;62112;45.638;11.714;2022-10-10T15:19:09;24.80;56.60
71672;DHT22;62112;45.638;11.714;2022-10-10T15:21:35;24.70;56.60
71672;DHT22;62112;45.638;11.714;2022-10-10T15:24:01;24.80;56.90
71672;DHT22;62112;45.638;11.714;2022-10-10T15:26:27;24.80;56.90
71672;DHT22;62112;45.638;11.714;2022-10-10T15:28:53;24.70;56.90
71672;DHT22;62112;45.638;11.714;2022-10-10T15:31:25;24.70;57.60
71672;DHT22;62112;45.638;11.714;2022-10-10T15:33:53;24.80;57.50
71672;DHT22;62112;45.638;11.714;2022-10-10T15:36:19;24.80;58.10
71672;DHT22;62112;45.638;11.714;2022-10-10T15:38:45;24.70;57.90
71672;DHT22;62112;45.638;11.714;2022-10-10T15:41:11;24.80;57.80
71672;DHT22;62112;45.638;11.714;2022-10-10T15:46:08;24.70;58.00
71672;DHT22;62112;45.638;11.714;2022-10-10T15:48:35;24.70;58.30
71672;DHT22;62112;45.638;11.714;2022-10-10T15:51:05;24.70;57.80
71672;DHT22;62112;45.638;11.714;2022-10-10T15:53:32;24.70;58.50
71672;DHT22;62112;45.638;11.714;2022-10-10T15:55:58;24.70;58.30
71672;DHT22;62112;45.638;11.714;2022-10-10T15:58:24;24.70;58.80
71672;DHT22;62112;45.638;11.714;2022-10-10T16:00:50;24.70;58.20
71672;DHT22;62112;45.638;11.714;2022-10-10T16:03:16;24.70;58.70
71672;DHT22;62112;45.638;11.714;2022-10-10T16:05:42;24.70;58.50
71672;DHT22;62112;45.638;11.714;2022-10-10T16:08:09;24.70;58.50
71672;DHT22;62112;45.638;11.714;2022-10-10T16:10:41;24.70;58.90
71672;DHT22;62112;45.638;11.714;2022-10-10T16:13:07;24.70;59.10
71672;DHT22;62112;45.638;11.714;2022-10-10T16:15:33;24.70;59.20
71672;DHT22;62112;45.638;11.714;2022-10-10T16:17:59;24.70;59.00
71672;DHT22;62112;45.638;11.714;2022-10-10T16:20:25;24.70;58.90
71672;DHT22;62112;45.638;11.714;2022-10-10T16:22:51;24.60;59.70
71672;DHT22;62112;45.638;11.714;2022-10-10T16:25:19;24.70;59.70
71672;DHT22;62112;45.638;11.714;2022-10-10T16:27:46;24.70;59.90
71672;DHT22;62112;45.638;11.714;2022-10-10T16:30:12;24.60;59.90
71672;DHT22;62112;45.638;11.714;2022-10-10T16:32:37;24.60;59.90
71672;DHT22;62112;45.638;11.714;2022-10-10T16:35:03;24.70;59.90
71672;DHT22;62112;45.638;11.714;2022-10-10T16:37:29;24.60;59.70
71672;DHT22;62112;45.638;11.714;2022-10-10T16:39:55;24.70;60.10
71672;DHT22;62112;45.638;11.714;2022-10-10T16:42:22;24.60;60.30
71672;DHT22;62112;45.638;11.714;2022-10-10T16:44:49;24.60;60.30
71672;DHT22;62112;45.638;11.714;2022-10-10T16:47:15;24.60;60.30
71672;DHT22;62112;45.638;11.714;2022-10-10T16:49:41;24.60;60.50
71672;DHT22;62112;45.638;11.714;2022-10-10T16:52:07;24.60;60.40
71672;DHT22;62112;45.638;11.714;2022-10-10T16:54:32;24.60;60.50
71672;DHT22;62112;45.638;11.714;2022-10-10T16:56:59;24.60;60.40
71672;DHT22;62112;45.638;11.714;2022-10-10T16:59:25;24.60;60.50
71672;DHT22;62112;45.638;11.714;2022-10-10T17:01:50;24.60;60.90
71672;DHT22;62112;45.638;11.714;2022-10-10T17:04:16;24.60;60.90
71672;DHT22;62112;45.638;11.714;2022-10-10T17:06:42;24.50;60.70
71672;DHT22;62112;45.638;11.714;2022-10-10T17:09:08;24.50;60.70
71672;DHT22;62112;45.638;11.714;2022-10-10T17:11:37;24.60;60.50
71672;DHT22;62112;45.638;11.714;2022-10-10T17:14:03;24.50;60.80
71672;DHT22;62112;45.638;11.714;2022-10-10T17:16:29;24.50;60.80
71672;DHT22;62112;45.638;11.714;2022-10-10T17:18:55;24.50;61.10